createdAt,value
2017-06-02T00:00:47.578Z,1011.79
2017-06-02T00:01:48.854Z,1011.79
2017-06-02T00:02:50.148Z,1011.74
2017-06-02T00:03:51.443Z,1011.77
2017-06-02T00:04:52.679Z,1011.75
2017-06-02T00:05:53.935Z,1011.75
2017-06-02T00:06:55.196Z,1011.76
2017-06-02T00:07:56.517Z,1011.71
2017-06-02T00:08:57.773Z,1011.75
2017-06-02T00:09:58.978Z,1011.71
2017-06-02T00:11:00.235Z,1011.68
2017-06-02T00:12:01.474Z,1011.7
2017-06-02T00:13:02.729Z,1011.68
2017-06-02T00:14:03.961Z,1011.65
2017-06-02T00:15:05.228Z,1011.64
2017-06-02T00:16:06.590Z,1011.64
2017-06-02T00:17:07.841Z,1011.61
2017-06-02T00:18:09.109Z,1011.59
2017-06-02T00:19:10.347Z,1011.55
2017-06-02T00:20:11.608Z,1011.59
2017-06-02T00:21:12.865Z,1011.57
2017-06-02T00:22:14.133Z,1011.57
2017-06-02T00:23:15.396Z,1011.58
2017-06-02T00:24:16.642Z,1011.52
2017-06-02T00:25:17.908Z,1011.54
2017-06-02T00:26:19.133Z,1011.53
2017-06-02T00:27:20.493Z,1011.54
2017-06-02T00:28:21.743Z,1011.49
2017-06-02T00:29:23.009Z,1011.48
2017-06-02T00:30:24.237Z,1011.49
2017-06-02T00:31:25.475Z,1011.47
2017-06-02T00:32:26.752Z,1011.44
2017-06-02T00:33:28.117Z,1011.48
2017-06-02T00:34:29.337Z,1011.44
2017-06-02T00:35:30.663Z,1011.43
2017-06-02T00:36:31.927Z,1011.42
2017-06-02T00:37:33.153Z,1011.4
2017-06-02T00:38:34.391Z,1011.4
2017-06-02T00:39:35.629Z,1011.39
2017-06-02T00:40:36.890Z,1011.36
2017-06-02T00:41:38.164Z,1011.32
2017-06-02T00:42:39.376Z,1011.32
2017-06-02T00:43:40.614Z,1011.35
2017-06-02T00:44:41.850Z,1011.32
2017-06-02T00:45:43.143Z,1011.33
2017-06-02T00:46:44.472Z,1011.29
2017-06-02T00:47:45.731Z,1011.28
2017-06-02T00:48:46.996Z,1011.27
2017-06-02T00:49:48.226Z,1011.26
2017-06-02T00:50:49.489Z,1011.28
2017-06-02T00:51:50.727Z,1011.28
2017-06-02T00:52:51.994Z,1011.3
2017-06-02T00:53:53.225Z,1011.26
2017-06-02T00:54:54.482Z,1011.3
2017-06-02T00:55:55.736Z,1011.25
2017-06-02T00:56:56.974Z,1011.28
2017-06-02T00:57:58.221Z,1011.24
2017-06-02T00:58:59.460Z,1011.3
2017-06-02T01:00:00.709Z,1011.27
2017-06-02T01:01:01.971Z,1011.28
2017-06-02T01:02:03.219Z,1011.26
2017-06-02T01:03:04.456Z,1011.22
2017-06-02T01:04:05.691Z,1011.25
2017-06-02T01:05:07.004Z,1011.24
2017-06-02T01:06:08.383Z,1011.27
2017-06-02T01:07:09.621Z,1011.25
2017-06-02T01:08:10.860Z,1011.27
2017-06-02T01:09:12.100Z,1011.26
2017-06-02T01:10:13.353Z,1011.24
2017-06-02T01:11:14.597Z,1011.24
2017-06-02T01:12:15.875Z,1011.21
2017-06-02T01:13:17.100Z,1011.2
2017-06-02T01:14:18.395Z,1011.2
2017-06-02T01:15:19.633Z,1011.19
2017-06-02T01:16:20.872Z,1011.15
2017-06-02T01:17:22.166Z,1011.17
2017-06-02T01:18:23.418Z,1011.16
2017-06-02T01:19:24.827Z,1011.18
2017-06-02T01:20:26.088Z,1011.22
2017-06-02T01:21:27.332Z,1011.19
2017-06-02T01:22:28.568Z,1011.19
2017-06-02T01:23:29.803Z,1011.22
2017-06-02T01:24:31.062Z,1011.2
2017-06-02T01:25:32.354Z,1011.18
2017-06-02T01:26:33.739Z,1011.19
2017-06-02T01:27:34.973Z,1011.17
2017-06-02T01:28:36.206Z,1011.15
2017-06-02T01:29:37.449Z,1011.14
2017-06-02T01:30:38.696Z,1011.14
2017-06-02T01:31:40.035Z,1011.14
2017-06-02T01:32:41.278Z,1011.13
2017-06-02T01:33:42.555Z,1011.12
2017-06-02T01:34:43.796Z,1011.13
2017-06-02T01:35:45.065Z,1011.12
2017-06-02T01:36:46.323Z,1011.14
2017-06-02T01:37:47.579Z,1011.12
2017-06-02T01:38:48.808Z,1011.11
2017-06-02T01:39:50.159Z,1011.08
2017-06-02T01:40:51.392Z,1011.1
2017-06-02T01:41:52.647Z,1011.11
2017-06-02T01:42:53.907Z,1011.06
2017-06-02T01:43:55.186Z,1011.05
2017-06-02T01:44:56.442Z,1011.07
2017-06-02T01:45:57.703Z,1011.07
2017-06-02T01:46:58.955Z,1011.05
2017-06-02T01:48:00.222Z,1011.06
2017-06-02T01:49:01.451Z,1011.05
2017-06-02T01:50:02.705Z,1011.05
2017-06-02T01:51:04.057Z,1011.02
2017-06-02T01:52:05.284Z,1011.03
2017-06-02T01:53:06.518Z,1011.01
2017-06-02T01:54:07.754Z,1010.99
2017-06-02T01:55:09.043Z,1011
2017-06-02T01:56:10.310Z,1011
2017-06-02T01:57:11.604Z,1010.99
2017-06-02T01:58:12.852Z,1010.99
2017-06-02T01:59:14.071Z,1010.99
2017-06-02T02:00:15.321Z,1010.99
2017-06-02T02:01:16.606Z,1010.98
2017-06-02T02:02:17.968Z,1010.97
2017-06-02T02:03:19.203Z,1010.98
2017-06-02T02:04:20.465Z,1010.94
2017-06-02T02:05:21.681Z,1010.94
2017-06-02T02:06:22.920Z,1010.91
2017-06-02T02:07:24.177Z,1010.94
2017-06-02T02:08:25.443Z,1010.96
2017-06-02T02:09:26.705Z,1010.95
2017-06-02T02:10:27.972Z,1010.91
2017-06-02T02:11:29.229Z,1010.93
2017-06-02T02:12:30.522Z,1010.94
2017-06-02T02:13:31.735Z,1010.92
2017-06-02T02:14:33.036Z,1010.92
2017-06-02T02:15:34.360Z,1010.91
2017-06-02T02:16:35.594Z,1010.89
2017-06-02T02:17:36.839Z,1010.88
2017-06-02T02:18:38.087Z,1010.9
2017-06-02T02:19:39.320Z,1010.89
2017-06-02T02:20:40.668Z,1010.89
2017-06-02T02:21:42.010Z,1010.89
2017-06-02T02:22:43.276Z,1010.92
2017-06-02T02:23:44.499Z,1010.92
2017-06-02T02:24:45.745Z,1010.96
2017-06-02T02:25:47.005Z,1010.92
2017-06-02T02:26:48.285Z,1010.94
2017-06-02T02:27:49.568Z,1010.91
2017-06-02T02:28:50.789Z,1010.94
2017-06-02T02:29:52.106Z,1010.9
2017-06-02T02:30:53.350Z,1010.92
2017-06-02T02:31:54.629Z,1010.95
2017-06-02T02:32:55.873Z,1010.9
2017-06-02T02:33:57.127Z,1010.89
2017-06-02T02:34:58.412Z,1010.94
2017-06-02T02:35:59.702Z,1010.88
2017-06-02T02:37:00.957Z,1010.9
2017-06-02T02:38:02.215Z,1010.88
2017-06-02T02:39:03.466Z,1010.88
2017-06-02T02:40:04.820Z,1010.89
2017-06-02T02:41:06.055Z,1010.88
2017-06-02T02:42:07.308Z,1010.9
2017-06-02T02:43:08.565Z,1010.92
2017-06-02T02:44:09.821Z,1010.89
2017-06-02T02:45:11.056Z,1010.9
2017-06-02T02:46:12.411Z,1010.88
2017-06-02T02:47:13.633Z,1010.91
2017-06-02T02:48:14.870Z,1010.9
2017-06-02T02:49:16.148Z,1010.87
2017-06-02T02:50:17.367Z,1010.9
2017-06-02T02:51:18.708Z,1010.87
2017-06-02T02:52:19.972Z,1010.88
2017-06-02T02:53:21.196Z,1010.86
2017-06-02T02:54:22.449Z,1010.86
2017-06-02T02:55:23.694Z,1010.88
2017-06-02T02:56:24.944Z,1010.85
2017-06-02T02:57:26.214Z,1010.84
2017-06-02T02:58:27.458Z,1010.82
2017-06-02T02:59:28.739Z,1010.8
2017-06-02T03:00:29.964Z,1010.8
2017-06-02T03:01:31.206Z,1010.8
2017-06-02T03:02:32.436Z,1010.79
2017-06-02T03:03:33.672Z,1010.8
2017-06-02T03:04:34.985Z,1010.79
2017-06-02T03:05:36.418Z,1010.79
2017-06-02T03:06:37.661Z,1010.79
2017-06-02T03:07:38.901Z,1010.81
2017-06-02T03:08:40.161Z,1010.77
2017-06-02T03:09:41.402Z,1010.79
2017-06-02T03:10:42.697Z,1010.76
2017-06-02T03:11:44.031Z,1010.72
2017-06-02T03:12:45.265Z,1010.73
2017-06-02T03:13:46.506Z,1010.73
2017-06-02T03:14:47.747Z,1010.69
2017-06-02T03:15:49.003Z,1010.7
2017-06-02T03:16:50.299Z,1010.71
2017-06-02T03:17:51.607Z,1010.69
2017-06-02T03:18:52.830Z,1010.7
2017-06-02T03:19:54.143Z,1010.7
2017-06-02T03:20:55.358Z,1010.7
2017-06-02T03:21:56.595Z,1010.71
2017-06-02T03:22:58.036Z,1010.66
2017-06-02T03:23:59.166Z,1010.68
2017-06-02T03:25:00.445Z,1010.63
2017-06-02T03:26:01.664Z,1010.67
2017-06-02T03:27:02.906Z,1010.63
2017-06-02T03:28:04.159Z,1010.64
2017-06-02T03:29:05.420Z,1010.64
2017-06-02T03:30:06.692Z,1010.64
2017-06-02T03:31:07.941Z,1010.64
2017-06-02T03:32:09.190Z,1010.65
2017-06-02T03:33:10.416Z,1010.65
2017-06-02T03:34:11.657Z,1010.62
2017-06-02T03:35:12.912Z,1010.63
2017-06-02T03:36:14.157Z,1010.63
2017-06-02T03:37:15.383Z,1010.6
2017-06-02T03:38:16.733Z,1010.65
2017-06-02T03:39:17.970Z,1010.58
2017-06-02T03:40:19.215Z,1010.59
2017-06-02T03:41:20.459Z,1010.58
2017-06-02T03:42:21.700Z,1010.58
2017-06-02T03:43:22.940Z,1010.62
2017-06-02T03:44:24.201Z,1010.6
2017-06-02T03:45:25.436Z,1010.59
2017-06-02T03:46:26.665Z,1010.59
2017-06-02T03:47:27.916Z,1010.59
2017-06-02T03:48:29.195Z,1010.6
2017-06-02T03:49:30.484Z,1010.61
2017-06-02T03:50:31.735Z,1010.6
2017-06-02T03:51:32.978Z,1010.63
2017-06-02T03:52:34.213Z,1010.65
2017-06-02T03:53:35.446Z,1010.63
2017-06-02T03:54:36.859Z,1010.69
2017-06-02T03:55:38.173Z,1010.61
2017-06-02T03:56:39.417Z,1010.66
2017-06-02T03:57:40.674Z,1010.66
2017-06-02T03:58:41.931Z,1010.65
2017-06-02T03:59:43.174Z,1010.68
2017-06-02T04:00:44.411Z,1010.66
2017-06-02T04:01:45.669Z,1010.64
2017-06-02T04:02:46.918Z,1010.65
2017-06-02T04:03:48.168Z,1010.66
2017-06-02T04:04:49.417Z,1010.66
2017-06-02T04:05:50.675Z,1010.64
2017-06-02T04:06:51.902Z,1010.69
2017-06-02T04:07:53.201Z,1010.67
2017-06-02T04:08:54.525Z,1010.61
2017-06-02T04:09:55.839Z,1010.64
2017-06-02T04:10:57.053Z,1010.63
2017-06-02T04:11:58.289Z,1010.6
2017-06-02T04:12:59.619Z,1010.62
2017-06-02T04:14:00.871Z,1010.59
2017-06-02T04:15:02.207Z,1010.59
2017-06-02T04:16:03.464Z,1010.6
2017-06-02T04:17:04.721Z,1010.59
2017-06-02T04:18:05.943Z,1010.59
2017-06-02T04:19:07.233Z,1010.55
2017-06-02T04:20:08.496Z,1010.54
2017-06-02T04:21:09.730Z,1010.55
2017-06-02T04:22:10.969Z,1010.6
2017-06-02T04:23:12.212Z,1010.59
2017-06-02T04:24:13.450Z,1010.61
2017-06-02T04:25:14.688Z,1010.62
2017-06-02T04:26:15.927Z,1010.62
2017-06-02T04:27:17.174Z,1010.61
2017-06-02T04:28:18.413Z,1010.6
2017-06-02T04:29:19.702Z,1010.58
2017-06-02T04:30:20.943Z,1010.6
2017-06-02T04:31:22.182Z,1010.62
2017-06-02T04:32:23.420Z,1010.65
2017-06-02T04:33:24.675Z,1010.63
2017-06-02T04:34:26.004Z,1010.61
2017-06-02T04:35:27.285Z,1010.57
2017-06-02T04:36:28.526Z,1010.61
2017-06-02T04:37:29.775Z,1010.53
2017-06-02T04:38:31.037Z,1010.56
2017-06-02T04:39:32.278Z,1010.56
2017-06-02T04:40:33.521Z,1010.57
2017-06-02T04:41:34.862Z,1010.61
2017-06-02T04:42:36.112Z,1010.61
2017-06-02T04:43:37.351Z,1010.57
2017-06-02T04:44:38.730Z,1010.56
2017-06-02T04:45:40.055Z,1010.54
2017-06-02T04:46:41.281Z,1010.54
2017-06-02T04:47:42.598Z,1010.56
2017-06-02T04:48:43.865Z,1010.54
2017-06-02T04:49:45.105Z,1010.57
2017-06-02T04:50:46.342Z,1010.55
2017-06-02T04:51:47.581Z,1010.52
2017-06-02T04:52:48.873Z,1010.58
2017-06-02T04:53:50.109Z,1010.57
2017-06-02T04:54:51.364Z,1010.58
2017-06-02T04:55:52.625Z,1010.6
2017-06-02T04:56:53.848Z,1010.61
2017-06-02T04:57:55.117Z,1010.61
2017-06-02T04:58:56.412Z,1010.62
2017-06-02T04:59:57.676Z,1010.6
2017-06-02T05:00:58.898Z,1010.6
2017-06-02T05:02:00.125Z,1010.71
2017-06-02T05:03:01.375Z,1010.58
2017-06-02T05:04:02.665Z,1010.61
2017-06-02T05:05:03.926Z,1010.72
2017-06-02T05:06:05.167Z,1010.6
2017-06-02T05:07:06.409Z,1010.72
2017-06-02T05:08:07.661Z,1010.68
2017-06-02T05:09:08.912Z,1010.62
2017-06-02T05:10:10.227Z,1010.64
2017-06-02T05:11:11.465Z,1010.61
2017-06-02T05:12:12.769Z,1010.59
2017-06-02T05:13:14.007Z,1010.59
2017-06-02T05:14:15.261Z,1010.57
2017-06-02T05:15:16.508Z,1010.57
2017-06-02T05:16:17.770Z,1010.53
2017-06-02T05:17:19.047Z,1010.48
2017-06-02T05:18:20.309Z,1010.5
2017-06-02T05:19:21.586Z,1010.53
2017-06-02T05:20:22.821Z,1010.56
2017-06-02T05:21:24.109Z,1010.58
2017-06-02T05:22:25.353Z,1010.61
2017-06-02T05:23:26.617Z,1010.56
2017-06-02T05:24:27.936Z,1010.57
2017-06-02T05:25:29.157Z,1010.56
2017-06-02T05:26:30.405Z,1010.57
2017-06-02T05:27:31.647Z,1010.59
2017-06-02T05:28:32.987Z,1010.62
2017-06-02T05:29:34.325Z,1010.64
2017-06-02T05:30:35.593Z,1010.6
2017-06-02T05:31:36.835Z,1010.58
2017-06-02T05:32:38.150Z,1010.58
2017-06-02T05:33:39.393Z,1010.62
2017-06-02T05:34:40.681Z,1010.67
2017-06-02T05:35:41.951Z,1010.71
2017-06-02T05:36:43.240Z,1010.73
2017-06-02T05:37:44.537Z,1010.84
2017-06-02T05:38:45.776Z,1010.8
2017-06-02T05:39:47.043Z,1010.87
2017-06-02T05:40:48.298Z,1010.88
2017-06-02T05:41:49.533Z,1010.83
2017-06-02T05:42:50.792Z,1010.81
2017-06-02T05:43:52.059Z,1010.85
2017-06-02T05:44:53.312Z,1010.83
2017-06-02T05:45:54.559Z,1010.85
2017-06-02T05:46:55.807Z,1010.84
2017-06-02T05:47:57.075Z,1010.9
2017-06-02T05:48:58.385Z,1010.9
2017-06-02T05:49:59.735Z,1010.88
2017-06-02T05:51:00.992Z,1010.81
2017-06-02T05:52:02.271Z,1010.82
2017-06-02T05:53:03.510Z,1010.8
2017-06-02T05:54:04.819Z,1010.85
2017-06-02T05:55:06.062Z,1010.86
2017-06-02T05:56:07.331Z,1010.87
2017-06-02T05:57:08.571Z,1010.86
2017-06-02T05:58:09.828Z,1010.9
2017-06-02T05:59:11.084Z,1010.87
2017-06-02T06:00:12.394Z,1010.88
2017-06-02T06:01:13.789Z,1010.89
2017-06-02T06:02:14.932Z,1010.89
2017-06-02T06:03:16.189Z,1010.93
2017-06-02T06:04:17.424Z,1010.92
2017-06-02T06:05:18.676Z,1010.9
2017-06-02T06:06:19.941Z,1010.9
2017-06-02T06:07:21.196Z,1010.94
2017-06-02T06:08:22.542Z,1010.94
2017-06-02T06:09:23.801Z,1010.91
2017-06-02T06:10:25.033Z,1010.96
2017-06-02T06:11:26.307Z,1010.96
2017-06-02T06:12:27.530Z,1011.02
2017-06-02T06:13:28.813Z,1011.06
2017-06-02T06:14:30.090Z,1011.15
2017-06-02T06:15:31.379Z,1011.24
2017-06-02T06:16:32.626Z,1011.3
2017-06-02T06:17:33.878Z,1011.3
2017-06-02T06:18:35.142Z,1011.37
2017-06-02T06:19:36.386Z,1011.4
2017-06-02T06:20:37.754Z,1011.41
2017-06-02T06:21:38.955Z,1011.41
2017-06-02T06:22:40.204Z,1011.45
2017-06-02T06:23:41.464Z,1011.43
2017-06-02T06:24:42.716Z,1011.48
2017-06-02T06:25:44.029Z,1011.49
2017-06-02T06:26:45.238Z,1011.54
2017-06-02T06:27:46.509Z,1011.55
2017-06-02T06:28:47.776Z,1011.6
2017-06-02T06:29:49.055Z,1011.61
2017-06-02T06:30:50.266Z,1011.63
2017-06-02T06:31:51.519Z,1011.68
2017-06-02T06:32:52.777Z,1011.64
2017-06-02T06:33:54.042Z,1011.61
2017-06-02T06:34:55.359Z,1011.61
2017-06-02T06:35:56.590Z,1011.66
2017-06-02T06:36:57.829Z,1011.71
2017-06-02T06:37:59.081Z,1011.71
2017-06-02T06:39:00.568Z,1011.73
2017-06-02T06:40:01.885Z,1011.74
2017-06-02T06:41:03.113Z,1011.82
2017-06-02T06:42:04.381Z,1011.82
2017-06-02T06:43:05.631Z,1011.79
2017-06-02T06:44:06.890Z,1011.8
2017-06-02T06:45:08.222Z,1011.79
2017-06-02T06:46:09.474Z,1011.78
2017-06-02T06:47:10.730Z,1011.78
2017-06-02T06:48:11.995Z,1011.82
2017-06-02T06:49:13.271Z,1011.85
2017-06-02T06:50:14.514Z,1011.86
2017-06-02T06:51:15.803Z,1011.89
2017-06-02T06:52:17.036Z,1011.88
2017-06-02T06:53:18.305Z,1011.86
2017-06-02T06:54:19.562Z,1011.85
2017-06-02T06:55:20.810Z,1011.88
2017-06-02T06:56:22.086Z,1011.93
2017-06-02T06:57:23.461Z,1011.97
2017-06-02T06:58:24.738Z,1011.93
2017-06-02T06:59:26.019Z,1011.75
2017-06-02T07:00:27.270Z,1011.6
2017-06-02T07:01:28.523Z,1011.66
2017-06-02T07:02:29.804Z,1011.76
2017-06-02T07:03:31.048Z,1011.8
2017-06-02T07:04:32.299Z,1011.2
2017-06-02T07:05:33.552Z,1011.06
2017-06-02T07:06:34.820Z,1010.67
2017-06-02T07:07:36.100Z,1010.69
2017-06-02T07:08:37.352Z,1011.67
2017-06-02T07:09:38.639Z,1010.67
2017-06-02T07:10:39.997Z,1010.61
2017-06-02T07:11:41.255Z,1010.72
2017-06-02T07:12:42.512Z,1010.7
2017-06-02T07:13:43.775Z,1010.61
2017-06-02T07:14:45.050Z,1010.66
2017-06-02T07:15:46.357Z,1011.07
2017-06-02T07:16:47.704Z,1010.54
2017-06-02T07:17:48.927Z,1010.57
2017-06-02T07:18:50.152Z,1010.64
2017-06-02T07:19:51.399Z,1010.67
2017-06-02T07:20:52.680Z,1011.55
2017-06-02T07:21:54.009Z,1011.25
2017-06-02T07:22:55.233Z,1011.44
2017-06-02T07:23:56.494Z,1011.05
2017-06-02T07:24:57.748Z,1010.67
2017-06-02T07:25:59.007Z,1011.43
2017-06-02T07:27:00.309Z,1011.34
2017-06-02T07:28:01.529Z,1011.36
2017-06-02T07:29:02.823Z,1011.29
2017-06-02T07:30:04.060Z,1011.33
2017-06-02T07:31:05.307Z,1011.31
2017-06-02T07:32:06.576Z,1010.94
2017-06-02T07:33:07.840Z,1011.19
2017-06-02T07:34:09.182Z,1010.66
2017-06-02T07:35:10.541Z,1010.72
2017-06-02T07:36:11.803Z,1010.91
2017-06-02T07:37:13.064Z,1011.27
2017-06-02T07:38:14.393Z,1011.36
2017-06-02T07:39:15.583Z,1011.2
2017-06-02T07:40:16.934Z,1011.29
2017-06-02T07:41:18.189Z,1010.77
2017-06-02T07:42:19.436Z,1011.37
2017-06-02T07:43:20.679Z,1010.67
2017-06-02T07:44:21.924Z,1010.72
2017-06-02T07:45:23.217Z,1011.23
2017-06-02T07:46:24.480Z,1011.29
2017-06-02T07:47:25.730Z,1010.97
2017-06-02T07:48:26.982Z,1011.34
2017-06-02T07:49:28.227Z,1011.24
2017-06-02T07:50:29.486Z,1011.16
2017-06-02T07:51:30.827Z,1011.02
2017-06-02T07:52:32.097Z,1011.12
2017-06-02T07:53:33.342Z,1010.84
2017-06-02T07:54:34.611Z,1010.95
2017-06-02T07:55:35.869Z,1010.85
2017-06-02T07:56:37.140Z,1011.25
2017-06-02T07:57:38.416Z,1010.7
2017-06-02T07:58:39.681Z,1011.25
2017-06-02T07:59:40.928Z,1010.87
2017-06-02T08:00:42.333Z,1010.7
2017-06-02T08:01:43.608Z,1010.63
2017-06-02T08:02:44.853Z,1011.36
2017-06-02T08:03:46.148Z,1011.19
2017-06-02T08:04:47.428Z,1011.01
2017-06-02T08:05:48.781Z,1011.18
2017-06-02T08:06:49.995Z,1010.66
2017-06-02T08:07:51.252Z,1010.66
2017-06-02T08:08:52.507Z,1010.82
2017-06-02T08:09:53.764Z,1011.44
2017-06-02T08:10:55.125Z,1011.07
2017-06-02T08:11:56.354Z,1011.41
2017-06-02T08:12:57.615Z,1011.32
2017-06-02T08:13:58.874Z,1011.07
2017-06-02T08:15:00.128Z,1010.65
2017-06-02T08:16:01.388Z,1010.68
2017-06-02T08:17:02.651Z,1011.31
2017-06-02T08:18:04.040Z,1010.76
2017-06-02T08:19:05.309Z,1010.82
2017-06-02T08:20:06.570Z,1010.65
2017-06-02T08:21:07.807Z,1010.66
2017-06-02T08:22:09.065Z,1010.69
2017-06-02T08:23:10.397Z,1010.79
2017-06-02T08:24:11.654Z,1011.03
2017-06-02T08:25:12.911Z,1011
2017-06-02T08:26:14.174Z,1011.12
2017-06-02T08:27:15.587Z,1010.93
2017-06-02T08:28:16.973Z,1011.66
2017-06-02T08:29:18.218Z,1011.25
2017-06-02T08:30:19.470Z,1010.76
2017-06-02T08:31:20.713Z,1010.8
2017-06-02T08:32:21.995Z,1010.87
2017-06-02T08:33:23.254Z,1011.23
2017-06-02T08:34:24.574Z,1011.26
2017-06-02T08:35:25.829Z,1012.04
2017-06-02T08:36:27.081Z,1012.26
2017-06-02T08:37:28.341Z,1010.9
2017-06-02T08:38:29.589Z,1011.06
2017-06-02T08:39:30.924Z,1011.05
2017-06-02T08:40:32.247Z,1011.19
2017-06-02T08:41:33.516Z,1011.39
2017-06-02T08:42:34.783Z,1011.22
2017-06-02T08:43:36.042Z,1011
2017-06-02T08:44:37.331Z,1012.07
2017-06-02T08:45:38.820Z,1012.25
2017-06-02T08:46:40.119Z,1013.12
2017-06-02T08:47:41.391Z,1013.3
2017-06-02T08:48:42.639Z,1011.03
2017-06-02T08:49:43.894Z,1011.19
2017-06-02T08:50:45.174Z,1011.47
2017-06-02T08:51:46.452Z,1011.22
2017-06-02T08:52:47.771Z,1013.88
2017-06-02T08:53:49.036Z,1011.04
2017-06-02T08:54:50.298Z,1011.15
2017-06-02T08:55:51.550Z,1013.84
2017-06-02T08:56:52.859Z,1011.89
2017-06-02T08:57:54.190Z,1011.66
2017-06-02T08:58:55.397Z,1013.34
2017-06-02T08:59:56.687Z,1011.93
2017-06-02T09:00:57.932Z,1010.98
2017-06-02T09:01:59.174Z,1010.97
2017-06-02T09:03:00.523Z,1011.22
2017-06-02T09:04:01.811Z,1010.65
2017-06-02T09:05:03.069Z,1010.85
2017-06-02T09:06:04.300Z,1010.86
2017-06-02T09:07:05.577Z,1010.76
2017-06-02T09:08:06.855Z,1010.68
2017-06-02T09:09:08.098Z,1010.64
2017-06-02T09:10:09.345Z,1010.67
2017-06-02T09:11:10.626Z,1010.74
2017-06-02T09:12:11.892Z,1010.71
2017-06-02T09:13:13.150Z,1010.64
2017-06-02T09:14:14.403Z,1010.65
2017-06-02T09:15:15.654Z,1010.79
2017-06-02T09:16:16.909Z,1011.65
2017-06-02T09:17:18.183Z,1014.53
2017-06-02T09:18:19.444Z,1013.88
2017-06-02T09:19:20.680Z,1014.14
2017-06-02T09:20:21.929Z,1014.03
2017-06-02T09:21:23.185Z,1014.01
2017-06-02T09:22:24.446Z,1014.1
2017-06-02T09:23:25.720Z,1014.25
2017-06-02T09:24:26.981Z,1013.91
2017-06-02T09:25:28.329Z,1013.72
2017-06-02T09:26:29.589Z,1013.42
2017-06-02T09:27:30.856Z,1013.25
2017-06-02T09:28:32.126Z,1013.23
2017-06-02T09:29:33.366Z,1012.98
2017-06-02T09:30:34.710Z,1012.83
2017-06-02T09:31:35.974Z,1012.58
2017-06-02T09:32:37.257Z,1012.44
2017-06-02T09:33:38.568Z,1012.36
2017-06-02T09:34:39.832Z,1012.2
2017-06-02T09:35:41.210Z,1012.05
2017-06-02T09:36:42.472Z,1011.79
2017-06-02T09:37:43.730Z,1011.7
2017-06-02T09:38:45.007Z,1011.58
2017-06-02T09:39:46.265Z,1011.36
2017-06-02T09:40:47.528Z,1011.35
2017-06-02T09:41:48.846Z,1011.22
2017-06-02T09:42:50.107Z,1011.19
2017-06-02T09:43:51.362Z,1011.12
2017-06-02T09:44:52.623Z,1011.16
2017-06-02T09:45:53.884Z,1011.04
2017-06-02T09:46:55.212Z,1011.02
2017-06-02T09:47:56.459Z,1011.07
2017-06-02T09:48:57.716Z,1011.05
2017-06-02T09:49:58.989Z,1010.97
2017-06-02T09:51:00.262Z,1010.91
2017-06-02T09:52:01.537Z,1010.89
2017-06-02T09:53:02.862Z,1010.88
2017-06-02T09:54:04.125Z,1010.8
2017-06-02T09:55:05.391Z,1010.76
2017-06-02T09:56:06.661Z,1010.79
2017-06-02T09:57:07.908Z,1010.82
2017-06-02T09:58:09.225Z,1010.8
2017-06-02T09:59:10.548Z,1010.8
2017-06-02T10:00:11.805Z,1010.78
2017-06-02T10:01:13.060Z,1010.78
2017-06-02T10:02:14.322Z,1010.75
2017-06-02T10:03:15.580Z,1010.69
2017-06-02T10:04:16.896Z,1010.67
2017-06-02T10:05:18.295Z,1010.61
2017-06-02T10:06:19.545Z,1010.52
2017-06-02T10:07:20.810Z,1010.47
2017-06-02T10:08:22.055Z,1010.46
2017-06-02T10:09:23.398Z,1010.43
2017-06-02T10:10:24.780Z,1010.4
2017-06-02T10:11:26.119Z,1010.42
2017-06-02T10:12:27.370Z,1010.4
2017-06-02T10:13:28.684Z,1010.33
2017-06-02T10:14:29.971Z,1010.36
2017-06-02T10:15:31.218Z,1010.33
2017-06-02T10:16:32.530Z,1010.26
2017-06-02T10:17:33.795Z,1010.25
2017-06-02T10:18:35.054Z,1010.27
2017-06-02T10:19:36.322Z,1010.21
2017-06-02T10:20:37.582Z,1010.24
2017-06-02T10:21:38.850Z,1010.16
2017-06-02T10:22:40.128Z,1010.14
2017-06-02T10:23:41.404Z,1010.12
2017-06-02T10:24:42.644Z,1010.18
2017-06-02T10:25:43.925Z,1010.08
2017-06-02T10:26:45.222Z,1010.1
2017-06-02T10:27:46.534Z,1010.13
2017-06-02T10:28:47.836Z,1010.13
2017-06-02T10:29:49.086Z,1010.08
2017-06-02T10:30:50.357Z,1010.09
2017-06-02T10:31:51.671Z,1010.01
2017-06-02T10:32:53.058Z,1010
2017-06-02T10:33:54.351Z,1009.93
2017-06-02T10:34:55.634Z,1009.91
2017-06-02T10:35:56.900Z,1009.89
2017-06-02T10:36:58.140Z,1009.84
2017-06-02T10:37:59.419Z,1009.88
2017-06-02T10:39:00.668Z,1009.84
2017-06-02T10:40:01.916Z,1009.82
2017-06-02T10:41:03.222Z,1009.83
2017-06-02T10:42:04.537Z,1009.78
2017-06-02T10:43:05.777Z,1009.82
2017-06-02T10:44:07.050Z,1009.79
2017-06-02T10:45:08.275Z,1009.78
2017-06-02T10:46:09.536Z,1009.79
2017-06-02T10:47:10.796Z,1009.77
2017-06-02T10:48:12.065Z,1009.79
2017-06-02T10:49:13.324Z,1009.77
2017-06-02T10:50:14.601Z,1009.78
2017-06-02T10:51:15.845Z,1009.8
2017-06-02T10:52:17.109Z,1009.86
2017-06-02T10:53:18.362Z,1009.79
2017-06-02T10:54:19.621Z,1009.79
2017-06-02T10:55:20.917Z,1009.76
2017-06-02T10:56:22.189Z,1009.8
2017-06-02T10:57:23.464Z,1009.71
2017-06-02T10:58:24.793Z,1009.73
2017-06-02T10:59:26.077Z,1009.68
2017-06-02T11:00:27.320Z,1009.66
2017-06-02T11:01:28.584Z,1009.66
2017-06-02T11:02:29.830Z,1009.58
2017-06-02T11:03:31.094Z,1009.56
2017-06-02T11:04:32.356Z,1009.54
2017-06-02T11:05:33.643Z,1009.5
2017-06-02T11:06:34.896Z,1009.55
2017-06-02T11:07:36.230Z,1009.57
2017-06-02T11:08:37.496Z,1009.53
2017-06-02T11:09:38.741Z,1009.58
2017-06-02T11:10:40.007Z,1009.5
2017-06-02T11:11:41.262Z,1009.5
2017-06-02T11:12:42.534Z,1009.53
2017-06-02T11:13:43.771Z,1009.49
2017-06-02T11:14:45.052Z,1009.49
2017-06-02T11:15:46.311Z,1009.5
2017-06-02T11:16:47.554Z,1009.53
2017-06-02T11:17:48.816Z,1009.58
2017-06-02T11:18:50.096Z,1009.51
2017-06-02T11:19:51.367Z,1009.51
2017-06-02T11:20:52.610Z,1009.55
2017-06-02T11:21:53.863Z,1009.52
2017-06-02T11:22:55.217Z,1009.52
2017-06-02T11:23:56.460Z,1009.58
2017-06-02T11:24:57.744Z,1009.53
2017-06-02T11:25:58.990Z,1009.52
2017-06-02T11:27:00.262Z,1009.49
2017-06-02T11:28:01.534Z,1009.49
2017-06-02T11:29:02.954Z,1009.47
2017-06-02T11:30:04.213Z,1009.46
2017-06-02T11:31:05.464Z,1009.41
2017-06-02T11:32:06.710Z,1009.44
2017-06-02T11:33:07.979Z,1009.45
2017-06-02T11:34:09.245Z,1009.43
2017-06-02T11:35:10.490Z,1009.41
2017-06-02T11:36:11.745Z,1009.41
2017-06-02T11:37:12.994Z,1009.44
2017-06-02T11:38:14.295Z,1009.45
2017-06-02T11:39:15.550Z,1009.4
2017-06-02T11:40:16.789Z,1009.38
2017-06-02T11:41:18.062Z,1009.34
2017-06-02T11:42:19.310Z,1009.31
2017-06-02T11:43:20.659Z,1009.31
2017-06-02T11:44:21.905Z,1009.26
2017-06-02T11:45:23.173Z,1009.27
2017-06-02T11:46:24.423Z,1009.3
2017-06-02T11:47:25.730Z,1009.32
2017-06-02T11:48:27.071Z,1009.24
2017-06-02T11:49:28.470Z,1009.24
2017-06-02T11:50:29.727Z,1009.27
2017-06-02T11:51:30.985Z,1009.25
2017-06-02T11:52:32.244Z,1009.29
2017-06-02T11:53:33.555Z,1009.26
2017-06-02T11:54:35.033Z,1009.26
2017-06-02T11:55:36.331Z,1009.29
2017-06-02T11:56:37.568Z,1009.22
2017-06-02T11:57:38.887Z,1009.17
2017-06-02T11:58:40.110Z,1009.18
2017-06-02T11:59:41.423Z,1009.25
2017-06-02T12:00:42.656Z,1009.2
2017-06-02T12:01:43.968Z,1009.22
2017-06-02T12:02:45.226Z,1009.19
2017-06-02T12:03:46.467Z,1009.17
2017-06-02T12:04:47.796Z,1009.2
2017-06-02T12:05:49.011Z,1009.24
2017-06-02T12:06:50.358Z,1009.19
2017-06-02T12:07:51.591Z,1009.21
2017-06-02T12:08:52.850Z,1009.21
2017-06-02T12:09:54.101Z,1009.22
2017-06-02T12:10:55.356Z,1009.13
2017-06-02T12:11:56.783Z,1009.16
2017-06-02T12:12:58.137Z,1009.11
2017-06-02T12:13:59.395Z,1009.1
2017-06-02T12:15:00.662Z,1009.09
2017-06-02T12:16:01.893Z,1009.08
2017-06-02T12:17:03.191Z,1009.11
2017-06-02T12:18:04.468Z,1009.09
2017-06-02T12:19:05.702Z,1009.08
2017-06-02T12:20:06.985Z,1009.07
2017-06-02T12:21:08.226Z,1009.05
2017-06-02T12:22:09.587Z,1009.08
2017-06-02T12:23:10.904Z,1009.06
2017-06-02T12:24:12.173Z,1009.04